sensor_id;sensor_type;location;lat;lon;timestamp;P1;durP1;ratioP1;P2;durP2;ratioP2
3769;SDS011;1900;48.890;9.190;2023-06-19T00:00:09;9.43;;;7.97;;
3769;SDS011;1900;48.890;9.190;2023-06-19T00:02:41;15.00;;;8.30;;
3769;SDS011;1900;48.890;9.190;2023-06-19T00:05:07;7.07;;;6.33;;
3769;SDS011;1900;48.890;9.190;2023-06-19T00:07:37;7.50;;;6.40;;
3769;SDS011;1900;48.890;9.190;2023-06-19T00:10:03;8.20;;;7.33;;
3769;SDS011;1900;48.890;9.190;2023-06-19T00:12:29;10.37;;;7.40;;
3769;SDS011;1900;48.890;9.190;2023-06-19T00:14:55;8.03;;;6.50;;
3769;SDS011;1900;48.890;9.190;2023-06-19T00:17:21;8.20;;;7.00;;
3769;SDS011;1900;48.890;9.190;2023-06-19T00:19:46;9.77;;;8.17;;
3769;SDS011;1900;48.890;9.190;2023-06-19T00:22:14;8.83;;;7.47;;
3769;SDS011;1900;48.890;9.190;2023-06-19T00:24:40;11.00;;;7.57;;
3769;SDS011;1900;48.890;9.190;2023-06-19T00:27:06;8.13;;;7.30;;
3769;SDS011;1900;48.890;9.190;2023-06-19T00:29:32;10.67;;;7.73;;
3769;SDS011;1900;48.890;9.190;2023-06-19T00:31:58;8.70;;;7.90;;
3769;SDS011;1900;48.890;9.190;2023-06-19T00:34:24;8.07;;;7.00;;
3769;SDS011;1900;48.890;9.190;2023-06-19T00:36:53;8.07;;;6.90;;
3769;SDS011;1900;48.890;9.190;2023-06-19T00:39:21;8.67;;;6.70;;
3769;SDS011;1900;48.890;9.190;2023-06-19T00:41:49;8.23;;;7.43;;
3769;SDS011;1900;48.890;9.190;2023-06-19T00:44:16;8.33;;;7.00;;
3769;SDS011;1900;48.890;9.190;2023-06-19T00:46:42;10.80;;;7.77;;
3769;SDS011;1900;48.890;9.190;2023-06-19T00:49:08;8.93;;;7.97;;
3769;SDS011;1900;48.890;9.190;2023-06-19T00:51:34;9.33;;;6.53;;
3769;SDS011;1900;48.890;9.190;2023-06-19T00:54:00;11.53;;;7.93;;
3769;SDS011;1900;48.890;9.190;2023-06-19T00:56:26;9.33;;;6.90;;
3769;SDS011;1900;48.890;9.190;2023-06-19T00:58:52;7.13;;;5.93;;
3769;SDS011;1900;48.890;9.190;2023-06-19T01:01:21;8.77;;;6.20;;
3769;SDS011;1900;48.890;9.190;2023-06-19T01:03:49;8.10;;;6.93;;
3769;SDS011;1900;48.890;9.190;2023-06-19T01:06:20;9.90;;;6.80;;
3769;SDS011;1900;48.890;9.190;2023-06-19T01:08:55;9.30;;;6.40;;
3769;SDS011;1900;48.890;9.190;2023-06-19T01:11:26;9.97;;;7.27;;
3769;SDS011;1900;48.890;9.190;2023-06-19T01:13:59;7.40;;;6.00;;
3769;SDS011;1900;48.890;9.190;2023-06-19T01:16:31;9.23;;;6.77;;
3769;SDS011;1900;48.890;9.190;2023-06-19T01:18:57;7.30;;;6.33;;
3769;SDS011;1900;48.890;9.190;2023-06-19T01:21:23;8.90;;;6.50;;
3769;SDS011;1900;48.890;9.190;2023-06-19T01:23:49;7.00;;;6.30;;
3769;SDS011;1900;48.890;9.190;2023-06-19T01:26:16;8.33;;;5.93;;
3769;SDS011;1900;48.890;9.190;2023-06-19T01:28:43;6.33;;;5.70;;
3769;SDS011;1900;48.890;9.190;2023-06-19T01:31:34;7.17;;;5.93;;
3769;SDS011;1900;48.890;9.190;2023-06-19T01:34:00;13.60;;;5.53;;
3769;SDS011;1900;48.890;9.190;2023-06-19T01:36:29;8.73;;;5.23;;
3769;SDS011;1900;48.890;9.190;2023-06-19T01:38:58;6.93;;;4.90;;
3769;SDS011;1900;48.890;9.190;2023-06-19T01:41:25;10.30;;;4.80;;
3769;SDS011;1900;48.890;9.190;2023-06-19T01:43:52;12.00;;;3.93;;
3769;SDS011;1900;48.890;9.190;2023-06-19T01:46:19;8.00;;;4.47;;
3769;SDS011;1900;48.890;9.190;2023-06-19T01:48:45;7.20;;;4.47;;
3769;SDS011;1900;48.890;9.190;2023-06-19T01:51:11;5.60;;;3.63;;
3769;SDS011;1900;48.890;9.190;2023-06-19T01:53:38;5.20;;;3.77;;
3769;SDS011;1900;48.890;9.190;2023-06-19T01:56:03;7.97;;;3.80;;
3769;SDS011;1900;48.890;9.190;2023-06-19T01:58:29;9.13;;;4.27;;
3769;SDS011;1900;48.890;9.190;2023-06-19T02:00:55;7.53;;;4.00;;
3769;SDS011;1900;48.890;9.190;2023-06-19T02:03:21;6.73;;;4.07;;
3769;SDS011;1900;48.890;9.190;2023-06-19T02:05:46;4.13;;;3.73;;
3769;SDS011;1900;48.890;9.190;2023-06-19T02:08:12;5.90;;;4.57;;
3769;SDS011;1900;48.890;9.190;2023-06-19T02:10:38;6.27;;;4.20;;
3769;SDS011;1900;48.890;9.190;2023-06-19T02:13:03;5.30;;;4.43;;
3769;SDS011;1900;48.890;9.190;2023-06-19T02:15:29;8.30;;;3.83;;
3769;SDS011;1900;48.890;9.190;2023-06-19T02:17:55;8.03;;;4.40;;
3769;SDS011;1900;48.890;9.190;2023-06-19T02:20:21;5.00;;;4.30;;
3769;SDS011;1900;48.890;9.190;2023-06-19T02:22:49;6.40;;;3.60;;
3769;SDS011;1900;48.890;9.190;2023-06-19T02:25:15;6.00;;;4.33;;
3769;SDS011;1900;48.890;9.190;2023-06-19T02:27:42;3.90;;;3.60;;
3769;SDS011;1900;48.890;9.190;2023-06-19T02:30:08;4.60;;;4.20;;
3769;SDS011;1900;48.890;9.190;2023-06-19T02:32:33;7.33;;;4.20;;
3769;SDS011;1900;48.890;9.190;2023-06-19T02:35:02;6.20;;;3.97;;
3769;SDS011;1900;48.890;9.190;2023-06-19T02:37:28;7.70;;;4.17;;
3769;SDS011;1900;48.890;9.190;2023-06-19T02:39:54;4.97;;;4.07;;
3769;SDS011;1900;48.890;9.190;2023-06-19T02:42:20;4.43;;;4.03;;
3769;SDS011;1900;48.890;9.190;2023-06-19T02:44:46;4.67;;;4.27;;
3769;SDS011;1900;48.890;9.190;2023-06-19T02:47:11;5.10;;;4.40;;
3769;SDS011;1900;48.890;9.190;2023-06-19T02:53:18;8.07;;;4.30;;
3769;SDS011;1900;48.890;9.190;2023-06-19T02:55:44;7.23;;;4.67;;
3769;SDS011;1900;48.890;9.190;2023-06-19T02:58:10;4.47;;;4.00;;
3769;SDS011;1900;48.890;9.190;2023-06-19T03:00:37;8.03;;;3.90;;
3769;SDS011;1900;48.890;9.190;2023-06-19T03:03:03;4.47;;;3.73;;
3769;SDS011;1900;48.890;9.190;2023-06-19T03:05:30;4.20;;;3.80;;
3769;SDS011;1900;48.890;9.190;2023-06-19T03:07:56;4.83;;;4.10;;
3769;SDS011;1900;48.890;9.190;2023-06-19T03:10:22;6.40;;;4.17;;
3769;SDS011;1900;48.890;9.190;2023-06-19T03:12:47;4.60;;;3.53;;
3769;SDS011;1900;48.890;9.190;2023-06-19T03:15:13;5.73;;;3.43;;
3769;SDS011;1900;48.890;9.190;2023-06-19T03:17:43;5.00;;;3.60;;
3769;SDS011;1900;48.890;9.190;2023-06-19T03:20:11;8.03;;;3.50;;
3769;SDS011;1900;48.890;9.190;2023-06-19T03:22:39;5.00;;;4.10;;
3769;SDS011;1900;48.890;9.190;2023-06-19T03:25:07;7.53;;;3.50;;
3769;SDS011;1900;48.890;9.190;2023-06-19T03:27:33;4.43;;;3.63;;
3769;SDS011;1900;48.890;9.190;2023-06-19T03:30:00;4.43;;;3.50;;
3769;SDS011;1900;48.890;9.190;2023-06-19T03:32:35;3.43;;;3.13;;
3769;SDS011;1900;48.890;9.190;2023-06-19T03:35:01;3.97;;;3.57;;
3769;SDS011;1900;48.890;9.190;2023-06-19T03:37:28;8.63;;;4.03;;
3769;SDS011;1900;48.890;9.190;2023-06-19T03:39:54;6.73;;;3.77;;
3769;SDS011;1900;48.890;9.190;2023-06-19T03:42:20;4.00;;;3.60;;
3769;SDS011;1900;48.890;9.190;2023-06-19T03:44:47;5.30;;;3.20;;
3769;SDS011;1900;48.890;9.190;2023-06-19T03:47:13;4.40;;;3.97;;
3769;SDS011;1900;48.890;9.190;2023-06-19T03:49:39;3.80;;;3.40;;
3769;SDS011;1900;48.890;9.190;2023-06-19T03:52:05;8.27;;;3.97;;
3769;SDS011;1900;48.890;9.190;2023-06-19T03:54:30;6.80;;;3.60;;
3769;SDS011;1900;48.890;9.190;2023-06-19T03:56:56;4.27;;;3.70;;
3769;SDS011;1900;48.890;9.190;2023-06-19T03:59:22;3.40;;;3.10;;
3769;SDS011;1900;48.890;9.190;2023-06-19T04:01:47;3.80;;;3.40;;
3769;SDS011;1900;48.890;9.190;2023-06-19T04:04:15;4.53;;;4.13;;
3769;SDS011;1900;48.890;9.190;2023-06-19T04:06:41;4.50;;;3.70;;
3769;SDS011;1900;48.890;9.190;2023-06-19T04:09:06;4.43;;;3.53;;
3769;SDS011;1900;48.890;9.190;2023-06-19T04:11:32;4.40;;;4.00;;
3769;SDS011;1900;48.890;9.190;2023-06-19T04:13:58;4.87;;;3.20;;
3769;SDS011;1900;48.890;9.190;2023-06-19T04:16:23;4.73;;;3.37;;
3769;SDS011;1900;48.890;9.190;2023-06-19T04:18:49;3.50;;;3.20;;
3769;SDS011;1900;48.890;9.190;2023-06-19T04:21:15;5.10;;;3.20;;
3769;SDS011;1900;48.890;9.190;2023-06-19T04:23:41;4.43;;;3.80;;
3769;SDS011;1900;48.890;9.190;2023-06-19T04:26:07;4.80;;;3.40;;
3769;SDS011;1900;48.890;9.190;2023-06-19T04:28:32;5.43;;;3.27;;
3769;SDS011;1900;48.890;9.190;2023-06-19T04:30:58;3.60;;;2.90;;
3769;SDS011;1900;48.890;9.190;2023-06-19T04:33:29;4.10;;;3.03;;
3769;SDS011;1900;48.890;9.190;2023-06-19T04:35:55;3.40;;;3.10;;
3769;SDS011;1900;48.890;9.190;2023-06-19T04:38:21;3.60;;;3.30;;
3769;SDS011;1900;48.890;9.190;2023-06-19T04:40:51;3.37;;;2.93;;
3769;SDS011;1900;48.890;9.190;2023-06-19T04:43:18;7.60;;;3.07;;
3769;SDS011;1900;48.890;9.190;2023-06-19T04:45:44;3.23;;;2.93;;
3769;SDS011;1900;48.890;9.190;2023-06-19T04:48:10;3.37;;;3.00;;
3769;SDS011;1900;48.890;9.190;2023-06-19T04:50:36;3.80;;;3.27;;
3769;SDS011;1900;48.890;9.190;2023-06-19T04:53:02;3.70;;;2.67;;
3769;SDS011;1900;48.890;9.190;2023-06-19T04:55:27;3.40;;;3.03;;
3769;SDS011;1900;48.890;9.190;2023-06-19T04:57:53;6.20;;;3.20;;
3769;SDS011;1900;48.890;9.190;2023-06-19T05:00:20;2.90;;;2.60;;
3769;SDS011;1900;48.890;9.190;2023-06-19T05:02:48;4.07;;;2.97;;
3769;SDS011;1900;48.890;9.190;2023-06-19T05:05:14;3.30;;;2.40;;
3769;SDS011;1900;48.890;9.190;2023-06-19T05:07:41;3.20;;;2.57;;
3769;SDS011;1900;48.890;9.190;2023-06-19T05:10:07;6.53;;;3.37;;
3769;SDS011;1900;48.890;9.190;2023-06-19T05:12:36;3.30;;;2.80;;
3769;SDS011;1900;48.890;9.190;2023-06-19T05:15:02;3.13;;;2.80;;
3769;SDS011;1900;48.890;9.190;2023-06-19T05:17:28;3.53;;;2.87;;
3769;SDS011;1900;48.890;9.190;2023-06-19T05:19:54;4.70;;;3.23;;
3769;SDS011;1900;48.890;9.190;2023-06-19T05:22:20;6.30;;;3.30;;
3769;SDS011;1900;48.890;9.190;2023-06-19T05:24:47;4.77;;;3.23;;
3769;SDS011;1900;48.890;9.190;2023-06-19T05:27:12;5.33;;;3.00;;
3769;SDS011;1900;48.890;9.190;2023-06-19T05:29:38;4.40;;;3.20;;
3769;SDS011;1900;48.890;9.190;2023-06-19T05:32:04;5.90;;;4.80;;
3769;SDS011;1900;48.890;9.190;2023-06-19T05:34:30;4.40;;;3.73;;
3769;SDS011;1900;48.890;9.190;2023-06-19T05:36:55;3.87;;;3.03;;
3769;SDS011;1900;48.890;9.190;2023-06-19T05:39:22;3.90;;;3.00;;
3769;SDS011;1900;48.890;9.190;2023-06-19T05:41:47;3.70;;;3.40;;
3769;SDS011;1900;48.890;9.190;2023-06-19T05:44:13;4.67;;;3.20;;
3769;SDS011;1900;48.890;9.190;2023-06-19T05:46:41;4.13;;;3.80;;
3769;SDS011;1900;48.890;9.190;2023-06-19T05:49:07;4.47;;;3.60;;
3769;SDS011;1900;48.890;9.190;2023-06-19T05:51:32;4.63;;;3.53;;
3769;SDS011;1900;48.890;9.190;2023-06-19T05:53:58;3.60;;;3.20;;
3769;SDS011;1900;48.890;9.190;2023-06-19T05:56:29;3.57;;;3.17;;
3769;SDS011;1900;48.890;9.190;2023-06-19T05:58:55;3.90;;;3.00;;
3769;SDS011;1900;48.890;9.190;2023-06-19T06:01:21;3.33;;;2.87;;
3769;SDS011;1900;48.890;9.190;2023-06-19T06:03:47;3.47;;;3.17;;
3769;SDS011;1900;48.890;9.190;2023-06-19T06:06:12;3.30;;;2.60;;
3769;SDS011;1900;48.890;9.190;2023-06-19T06:08:38;3.73;;;2.67;;
3769;SDS011;1900;48.890;9.190;2023-06-19T06:11:03;4.30;;;3.30;;
3769;SDS011;1900;48.890;9.190;2023-06-19T06:13:29;5.00;;;3.40;;
3769;SDS011;1900;48.890;9.190;2023-06-19T06:15:55;4.40;;;3.43;;
3769;SDS011;1900;48.890;9.190;2023-06-19T06:18:21;5.80;;;2.90;;
3769;SDS011;1900;48.890;9.190;2023-06-19T06:20:47;5.67;;;3.20;;
3769;SDS011;1900;48.890;9.190;2023-06-19T06:23:12;8.47;;;2.87;;
3769;SDS011;1900;48.890;9.190;2023-06-19T06:25:38;2.73;;;2.50;;
3769;SDS011;1900;48.890;9.190;2023-06-19T06:28:04;7.03;;;3.20;;
3769;SDS011;1900;48.890;9.190;2023-06-19T06:30:30;3.40;;;3.10;;
3769;SDS011;1900;48.890;9.190;2023-06-19T06:32:55;6.30;;;2.97;;
3769;SDS011;1900;48.890;9.190;2023-06-19T06:35:21;5.87;;;2.67;;
3769;SDS011;1900;48.890;9.190;2023-06-19T06:37:47;6.20;;;3.37;;
3769;SDS011;1900;48.890;9.190;2023-06-19T06:40:15;5.40;;;3.50;;
3769;SDS011;1900;48.890;9.190;2023-06-19T06:42:40;3.50;;;2.90;;
3769;SDS011;1900;48.890;9.190;2023-06-19T06:45:06;4.83;;;3.07;;
3769;SDS011;1900;48.890;9.190;2023-06-19T06:47:33;3.23;;;2.63;;
3769;SDS011;1900;48.890;9.190;2023-06-19T06:49:59;3.10;;;2.80;;
3769;SDS011;1900;48.890;9.190;2023-06-19T06:52:25;6.37;;;3.73;;
3769;SDS011;1900;48.890;9.190;2023-06-19T06:54:51;3.77;;;3.00;;
3769;SDS011;1900;48.890;9.190;2023-06-19T06:57:16;3.60;;;3.03;;
3769;SDS011;1900;48.890;9.190;2023-06-19T06:59:42;7.63;;;3.17;;
3769;SDS011;1900;48.890;9.190;2023-06-19T07:02:08;4.00;;;3.53;;
3769;SDS011;1900;48.890;9.190;2023-06-19T07:04:33;4.50;;;2.90;;
3769;SDS011;1900;48.890;9.190;2023-06-19T07:06:59;2.90;;;2.57;;
3769;SDS011;1900;48.890;9.190;2023-06-19T07:09:25;3.27;;;2.60;;
3769;SDS011;1900;48.890;9.190;2023-06-19T07:11:50;4.00;;;3.33;;
3769;SDS011;1900;48.890;9.190;2023-06-19T07:14:16;3.13;;;2.70;;
3769;SDS011;1900;48.890;9.190;2023-06-19T07:16:46;4.40;;;2.50;;
3769;SDS011;1900;48.890;9.190;2023-06-19T07:19:11;3.57;;;2.80;;
3769;SDS011;1900;48.890;9.190;2023-06-19T07:21:37;3.23;;;2.70;;
3769;SDS011;1900;48.890;9.190;2023-06-19T07:24:04;2.80;;;2.60;;
3769;SDS011;1900;48.890;9.190;2023-06-19T07:26:30;3.17;;;2.90;;
3769;SDS011;1900;48.890;9.190;2023-06-19T07:28:56;3.23;;;2.90;;
3769;SDS011;1900;48.890;9.190;2023-06-19T07:31:22;2.90;;;2.60;;
3769;SDS011;1900;48.890;9.190;2023-06-19T07:33:48;2.80;;;2.60;;
3769;SDS011;1900;48.890;9.190;2023-06-19T07:36:13;3.80;;;2.60;;
3769;SDS011;1900;48.890;9.190;2023-06-19T07:38:41;3.13;;;2.93;;
3769;SDS011;1900;48.890;9.190;2023-06-19T07:41:08;5.17;;;2.87;;
3769;SDS011;1900;48.890;9.190;2023-06-19T07:43:35;3.83;;;2.27;;
3769;SDS011;1900;48.890;9.190;2023-06-19T07:46:01;2.60;;;2.40;;
3769;SDS011;1900;48.890;9.190;2023-06-19T07:48:27;3.07;;;2.50;;
3769;SDS011;1900;48.890;9.190;2023-06-19T07:50:53;4.63;;;2.70;;
3769;SDS011;1900;48.890;9.190;2023-06-19T07:53:19;3.63;;;3.20;;
3769;SDS011;1900;48.890;9.190;2023-06-19T07:55:45;11.43;;;3.37;;
3769;SDS011;1900;48.890;9.190;2023-06-19T07:58:11;6.10;;;2.63;;
3769;SDS011;1900;48.890;9.190;2023-06-19T08:00:37;3.37;;;3.07;;
3769;SDS011;1900;48.890;9.190;2023-06-19T08:03:02;3.00;;;2.70;;
3769;SDS011;1900;48.890;9.190;2023-06-19T08:05:28;4.73;;;2.60;;
3769;SDS011;1900;48.890;9.190;2023-06-19T08:07:55;2.43;;;2.23;;
3769;SDS011;1900;48.890;9.190;2023-06-19T08:10:22;2.70;;;2.43;;
3769;SDS011;1900;48.890;9.190;2023-06-19T08:12:47;3.07;;;2.77;;
3769;SDS011;1900;48.890;9.190;2023-06-19T08:15:13;3.27;;;2.20;;
3769;SDS011;1900;48.890;9.190;2023-06-19T08:17:39;3.03;;;2.30;;
3769;SDS011;1900;48.890;9.190;2023-06-19T08:20:05;3.80;;;2.97;;
3769;SDS011;1900;48.890;9.190;2023-06-19T08:22:32;3.00;;;2.70;;
3769;SDS011;1900;48.890;9.190;2023-06-19T08:24:58;2.50;;;2.30;;
3769;SDS011;1900;48.890;9.190;2023-06-19T08:27:23;2.60;;;2.40;;
3769;SDS011;1900;48.890;9.190;2023-06-19T08:29:49;3.30;;;3.00;;
3769;SDS011;1900;48.890;9.190;2023-06-19T08:32:15;2.90;;;2.60;;
3769;SDS011;1900;48.890;9.190;2023-06-19T08:34:41;2.90;;;2.60;;
3769;SDS011;1900;48.890;9.190;2023-06-19T08:37:07;2.70;;;2.50;;
3769;SDS011;1900;48.890;9.190;2023-06-19T08:39:33;5.30;;;2.67;;
3769;SDS011;1900;48.890;9.190;2023-06-19T08:42:03;3.23;;;2.93;;
3769;SDS011;1900;48.890;9.190;2023-06-19T08:44:33;3.37;;;2.80;;
3769;SDS011;1900;48.890;9.190;2023-06-19T08:47:00;2.80;;;2.60;;
3769;SDS011;1900;48.890;9.190;2023-06-19T08:49:33;3.17;;;2.43;;
3769;SDS011;1900;48.890;9.190;2023-06-19T08:51:59;2.87;;;2.57;;
3769;SDS011;1900;48.890;9.190;2023-06-19T08:54:26;3.60;;;2.77;;
3769;SDS011;1900;48.890;9.190;2023-06-19T08:56:51;3.77;;;2.80;;
3769;SDS011;1900;48.890;9.190;2023-06-19T08:59:18;3.00;;;2.80;;
3769;SDS011;1900;48.890;9.190;2023-06-19T09:01:49;3.37;;;2.40;;
3769;SDS011;1900;48.890;9.190;2023-06-19T09:04:17;4.10;;;2.60;;
3769;SDS011;1900;48.890;9.190;2023-06-19T09:06:46;3.63;;;3.33;;
3769;SDS011;1900;48.890;9.190;2023-06-19T09:09:13;4.50;;;2.73;;
3769;SDS011;1900;48.890;9.190;2023-06-19T09:11:41;2.60;;;2.40;;
3769;SDS011;1900;48.890;9.190;2023-06-19T09:14:10;2.90;;;2.57;;
3769;SDS011;1900;48.890;9.190;2023-06-19T09:16:40;3.27;;;2.67;;
3769;SDS011;1900;48.890;9.190;2023-06-19T09:19:06;4.57;;;2.53;;
3769;SDS011;1900;48.890;9.190;2023-06-19T09:21:34;3.20;;;2.90;;
3769;SDS011;1900;48.890;9.190;2023-06-19T09:24:02;4.50;;;2.80;;
3769;SDS011;1900;48.890;9.190;2023-06-19T09:26:31;4.83;;;3.63;;
3769;SDS011;1900;48.890;9.190;2023-06-19T09:28:57;10.30;;;4.50;;
3769;SDS011;1900;48.890;9.190;2023-06-19T09:31:33;3.60;;;3.30;;
3769;SDS011;1900;48.890;9.190;2023-06-19T09:33:59;5.43;;;2.90;;
3769;SDS011;1900;48.890;9.190;2023-06-19T09:36:24;3.27;;;3.00;;
3769;SDS011;1900;48.890;9.190;2023-06-19T09:38:51;4.43;;;3.23;;
3769;SDS011;1900;48.890;9.190;2023-06-19T09:41:18;4.17;;;3.67;;
3769;SDS011;1900;48.890;9.190;2023-06-19T09:43:46;4.60;;;3.30;;
3769;SDS011;1900;48.890;9.190;2023-06-19T09:46:14;4.47;;;3.30;;
3769;SDS011;1900;48.890;9.190;2023-06-19T09:48:44;4.90;;;3.10;;
3769;SDS011;1900;48.890;9.190;2023-06-19T09:51:18;9.53;;;3.57;;
3769;SDS011;1900;48.890;9.190;2023-06-19T09:53:45;5.73;;;3.47;;
3769;SDS011;1900;48.890;9.190;2023-06-19T09:56:12;5.80;;;3.00;;
3769;SDS011;1900;48.890;9.190;2023-06-19T09:58:39;5.93;;;3.13;;
3769;SDS011;1900;48.890;9.190;2023-06-19T10:01:07;3.80;;;3.00;;
3769;SDS011;1900;48.890;9.190;2023-06-19T10:03:34;3.67;;;3.33;;
3769;SDS011;1900;48.890;9.190;2023-06-19T10:06:01;8.63;;;3.03;;
3769;SDS011;1900;48.890;9.190;2023-06-19T10:08:29;4.20;;;3.00;;
3769;SDS011;1900;48.890;9.190;2023-06-19T10:10:56;5.70;;;4.10;;
3769;SDS011;1900;48.890;9.190;2023-06-19T10:13:30;20.30;;;6.27;;
3769;SDS011;1900;48.890;9.190;2023-06-19T10:15:56;17.23;;;4.30;;
3769;SDS011;1900;48.890;9.190;2023-06-19T10:18:22;8.18;;;3.63;;
3769;SDS011;1900;48.890;9.190;2023-06-19T10:20:50;6.82;;;3.20;;
3769;SDS011;1900;48.890;9.190;2023-06-19T10:25:43;3.13;;;2.88;;
3769;SDS011;1900;48.890;9.190;2023-06-19T10:33:22;3.17;;;2.88;;
3769;SDS011;1900;48.890;9.190;2023-06-19T10:35:50;4.22;;;3.08;;
3769;SDS011;1900;48.890;9.190;2023-06-19T10:38:16;7.22;;;2.50;;
3769;SDS011;1900;48.890;9.190;2023-06-19T10:40:42;4.30;;;2.85;;
3769;SDS011;1900;48.890;9.190;2023-06-19T10:43:09;3.80;;;3.05;;
3769;SDS011;1900;48.890;9.190;2023-06-19T10:45:35;9.15;;;3.05;;
3769;SDS011;1900;48.890;9.190;2023-06-19T10:48:02;5.18;;;3.53;;
3769;SDS011;1900;48.890;9.190;2023-06-19T10:50:29;6.63;;;3.10;;
3769;SDS011;1900;48.890;9.190;2023-06-19T10:53:07;5.57;;;3.60;;
3769;SDS011;1900;48.890;9.190;2023-06-19T10:55:32;3.30;;;2.65;;
3769;SDS011;1900;48.890;9.190;2023-06-19T10:57:58;3.22;;;2.88;;
3769;SDS011;1900;48.890;9.190;2023-06-19T11:00:30;3.65;;;3.35;;
3769;SDS011;1900;48.890;9.190;2023-06-19T11:02:58;3.47;;;3.17;;
3769;SDS011;1900;48.890;9.190;2023-06-19T11:05:24;7.85;;;3.00;;
3769;SDS011;1900;48.890;9.190;2023-06-19T11:07:54;4.20;;;2.90;;
3769;SDS011;1900;48.890;9.190;2023-06-19T11:10:22;6.45;;;3.00;;
3769;SDS011;1900;48.890;9.190;2023-06-19T11:12:50;4.57;;;3.10;;
3769;SDS011;1900;48.890;9.190;2023-06-19T11:15:19;4.53;;;3.40;;
3769;SDS011;1900;48.890;9.190;2023-06-19T11:17:45;3.53;;;2.67;;
3769;SDS011;1900;48.890;9.190;2023-06-19T11:20:11;4.20;;;3.05;;
3769;SDS011;1900;48.890;9.190;2023-06-19T11:22:39;3.83;;;3.20;;
3769;SDS011;1900;48.890;9.190;2023-06-19T11:25:06;5.15;;;3.10;;
3769;SDS011;1900;48.890;9.190;2023-06-19T11:27:34;5.22;;;3.30;;
3769;SDS011;1900;48.890;9.190;2023-06-19T11:30:05;4.10;;;3.40;;
3769;SDS011;1900;48.890;9.190;2023-06-19T11:32:33;4.72;;;3.00;;
3769;SDS011;1900;48.890;9.190;2023-06-19T11:35:10;3.58;;;3.28;;
3769;SDS011;1900;48.890;9.190;2023-06-19T11:37:39;4.50;;;3.20;;
3769;SDS011;1900;48.890;9.190;2023-06-19T11:40:07;3.15;;;2.85;;
3769;SDS011;1900;48.890;9.190;2023-06-19T11:42:44;3.50;;;3.10;;
3769;SDS011;1900;48.890;9.190;2023-06-19T11:45:14;3.78;;;3.38;;
3769;SDS011;1900;48.890;9.190;2023-06-19T11:47:40;3.40;;;3.00;;
3769;SDS011;1900;48.890;9.190;2023-06-19T11:50:09;5.65;;;2.95;;
3769;SDS011;1900;48.890;9.190;2023-06-19T11:52:35;3.78;;;2.85;;
3769;SDS011;1900;48.890;9.190;2023-06-19T11:55:01;4.35;;;2.90;;
3769;SDS011;1900;48.890;9.190;2023-06-19T11:57:26;3.10;;;2.80;;
3769;SDS011;1900;48.890;9.190;2023-06-19T11:59:52;3.13;;;2.83;;
3769;SDS011;1900;48.890;9.190;2023-06-19T12:02:18;3.85;;;3.50;;
3769;SDS011;1900;48.890;9.190;2023-06-19T12:04:44;3.15;;;2.95;;
3769;SDS011;1900;48.890;9.190;2023-06-19T12:07:09;3.50;;;3.20;;
3769;SDS011;1900;48.890;9.190;2023-06-19T12:09:36;5.30;;;3.03;;
3769;SDS011;1900;48.890;9.190;2023-06-19T12:12:04;3.70;;;2.83;;
3769;SDS011;1900;48.890;9.190;2023-06-19T12:14:31;4.30;;;3.25;;
3769;SDS011;1900;48.890;9.190;2023-06-19T12:16:56;9.57;;;3.05;;
3769;SDS011;1900;48.890;9.190;2023-06-19T12:19:22;4.35;;;3.33;;
3769;SDS011;1900;48.890;9.190;2023-06-19T12:21:48;3.05;;;2.80;;
3769;SDS011;1900;48.890;9.190;2023-06-19T12:24:13;3.47;;;3.03;;
3769;SDS011;1900;48.890;9.190;2023-06-19T12:26:39;4.03;;;2.88;;
3769;SDS011;1900;48.890;9.190;2023-06-19T12:29:06;4.00;;;2.78;;
3769;SDS011;1900;48.890;9.190;2023-06-19T12:31:35;3.38;;;3.08;;
3769;SDS011;1900;48.890;9.190;2023-06-19T12:34:03;3.58;;;3.28;;
3769;SDS011;1900;48.890;9.190;2023-06-19T12:36:32;3.53;;;3.22;;
3769;SDS011;1900;48.890;9.190;2023-06-19T12:38:58;5.95;;;3.70;;
3769;SDS011;1900;48.890;9.190;2023-06-19T12:41:25;3.28;;;2.97;;
3769;SDS011;1900;48.890;9.190;2023-06-19T12:43:50;3.00;;;2.80;;
3769;SDS011;1900;48.890;9.190;2023-06-19T12:46:16;3.42;;;3.13;;
3769;SDS011;1900;48.890;9.190;2023-06-19T12:48:42;3.53;;;3.10;;
3769;SDS011;1900;48.890;9.190;2023-06-19T12:51:07;7.68;;;3.53;;
3769;SDS011;1900;48.890;9.190;2023-06-19T12:53:33;4.20;;;3.90;;
3769;SDS011;1900;48.890;9.190;2023-06-19T12:55:59;3.83;;;3.53;;
3769;SDS011;1900;48.890;9.190;2023-06-19T12:58:25;5.25;;;3.60;;
3769;SDS011;1900;48.890;9.190;2023-06-19T13:00:51;4.10;;;3.70;;
3769;SDS011;1900;48.890;9.190;2023-06-19T13:03:18;3.83;;;3.53;;
3769;SDS011;1900;48.890;9.190;2023-06-19T13:05:44;4.45;;;3.88;;
3769;SDS011;1900;48.890;9.190;2023-06-19T13:08:10;6.10;;;4.60;;
3769;SDS011;1900;48.890;9.190;2023-06-19T13:10:36;5.93;;;4.22;;
3769;SDS011;1900;48.890;9.190;2023-06-19T13:13:03;7.93;;;5.00;;
3769;SDS011;1900;48.890;9.190;2023-06-19T13:15:30;7.75;;;4.63;;
3769;SDS011;1900;48.890;9.190;2023-06-19T13:17:58;3.88;;;3.50;;
3769;SDS011;1900;48.890;9.190;2023-06-19T13:20:24;4.55;;;3.08;;
3769;SDS011;1900;48.890;9.190;2023-06-19T13:22:50;7.35;;;5.60;;
3769;SDS011;1900;48.890;9.190;2023-06-19T13:25:17;4.40;;;3.83;;
3769;SDS011;1900;48.890;9.190;2023-06-19T13:27:44;5.95;;;4.70;;
3769;SDS011;1900;48.890;9.190;2023-06-19T13:30:09;7.50;;;6.28;;
3769;SDS011;1900;48.890;9.190;2023-06-19T13:32:36;3.53;;;3.20;;
3769;SDS011;1900;48.890;9.190;2023-06-19T13:35:02;6.72;;;4.90;;
3769;SDS011;1900;48.890;9.190;2023-06-19T13:37:29;5.43;;;3.75;;
3769;SDS011;1900;48.890;9.190;2023-06-19T13:39:55;5.68;;;4.70;;
3769;SDS011;1900;48.890;9.190;2023-06-19T13:42:21;5.35;;;4.85;;
3769;SDS011;1900;48.890;9.190;2023-06-19T13:44:47;4.47;;;3.88;;
3769;SDS011;1900;48.890;9.190;2023-06-19T13:47:12;3.83;;;3.53;;
3769;SDS011;1900;48.890;9.190;2023-06-19T13:49:38;4.57;;;4.18;;
3769;SDS011;1900;48.890;9.190;2023-06-19T13:52:04;5.28;;;4.22;;
3769;SDS011;1900;48.890;9.190;2023-06-19T13:54:30;4.13;;;3.78;;
3769;SDS011;1900;48.890;9.190;2023-06-19T13:56:56;3.83;;;3.40;;
3769;SDS011;1900;48.890;9.190;2023-06-19T13:59:22;3.70;;;3.40;;
3769;SDS011;1900;48.890;9.190;2023-06-19T14:01:47;4.05;;;3.25;;
3769;SDS011;1900;48.890;9.190;2023-06-19T14:04:13;11.18;;;5.07;;
3769;SDS011;1900;48.890;9.190;2023-06-19T14:06:39;16.98;;;6.72;;
3769;SDS011;1900;48.890;9.190;2023-06-19T14:09:07;12.40;;;5.95;;
3769;SDS011;1900;48.890;9.190;2023-06-19T14:14:23;21.33;;;4.97;;
3769;SDS011;1900;48.890;9.190;2023-06-19T14:16:48;105.10;;;17.77;;
3769;SDS011;1900;48.890;9.190;2023-06-19T14:19:14;6.70;;;4.18;;
3769;SDS011;1900;48.890;9.190;2023-06-19T14:21:40;8.48;;;5.40;;
3769;SDS011;1900;48.890;9.190;2023-06-19T14:24:06;8.07;;;4.88;;
3769;SDS011;1900;48.890;9.190;2023-06-19T14:26:31;4.53;;;4.13;;
3769;SDS011;1900;48.890;9.190;2023-06-19T14:28:57;5.97;;;5.20;;
3769;SDS011;1900;48.890;9.190;2023-06-19T14:31:30;4.80;;;3.80;;
3769;SDS011;1900;48.890;9.190;2023-06-19T14:33:56;5.05;;;4.32;;
3769;SDS011;1900;48.890;9.190;2023-06-19T14:36:21;4.00;;;3.55;;
3769;SDS011;1900;48.890;9.190;2023-06-19T14:38:47;5.50;;;4.47;;
3769;SDS011;1900;48.890;9.190;2023-06-19T14:41:13;7.72;;;5.95;;
3769;SDS011;1900;48.890;9.190;2023-06-19T14:43:38;4.35;;;3.83;;
3769;SDS011;1900;48.890;9.190;2023-06-19T14:46:04;4.47;;;3.33;;
3769;SDS011;1900;48.890;9.190;2023-06-19T14:48:30;5.15;;;4.03;;
3769;SDS011;1900;48.890;9.190;2023-06-19T14:50:56;6.57;;;3.90;;
3769;SDS011;1900;48.890;9.190;2023-06-19T14:53:21;3.60;;;3.40;;
3769;SDS011;1900;48.890;9.190;2023-06-19T14:55:47;4.35;;;3.95;;
3769;SDS011;1900;48.890;9.190;2023-06-19T14:58:14;4.97;;;3.72;;
3769;SDS011;1900;48.890;9.190;2023-06-19T15:00:40;5.05;;;4.30;;
3769;SDS011;1900;48.890;9.190;2023-06-19T15:03:06;4.13;;;3.78;;
3769;SDS011;1900;48.890;9.190;2023-06-19T15:05:33;6.05;;;5.45;;
3769;SDS011;1900;48.890;9.190;2023-06-19T15:07:59;6.32;;;5.72;;
3769;SDS011;1900;48.890;9.190;2023-06-19T15:10:26;4.60;;;4.00;;
3769;SDS011;1900;48.890;9.190;2023-06-19T15:12:52;6.05;;;5.30;;
3769;SDS011;1900;48.890;9.190;2023-06-19T15:15:18;5.22;;;4.00;;
3769;SDS011;1900;48.890;9.190;2023-06-19T15:17:43;5.47;;;4.78;;
3769;SDS011;1900;48.890;9.190;2023-06-19T15:20:09;3.60;;;3.30;;
3769;SDS011;1900;48.890;9.190;2023-06-19T15:22:35;4.97;;;4.47;;
3769;SDS011;1900;48.890;9.190;2023-06-19T15:25:02;7.20;;;6.47;;